sensor_id;sensor_type;location;lat;lon;timestamp;temperature;humidity
13049;DHT22;6591;51.446;5.404;2023-09-19T00:01:48;17.40;99.90
13049;DHT22;6591;51.446;5.404;2023-09-19T00:04:15;16.30;99.90
13049;DHT22;6591;51.446;5.404;2023-09-19T00:06:42;16.30;99.90
13049;DHT22;6591;51.446;5.404;2023-09-19T00:09:11;16.20;99.90
13049;DHT22;6591;51.446;5.404;2023-09-19T00:11:38;17.50;99.90
13049;DHT22;6591;51.446;5.404;2023-09-19T00:14:05;16.00;99.90
13049;DHT22;6591;51.446;5.404;2023-09-19T00:16:34;16.20;99.90
13049;DHT22;6591;51.446;5.404;2023-09-19T00:19:03;14.60;99.90
13049;DHT22;6591;51.446;5.404;2023-09-19T00:21:32;16.10;99.90
13049;DHT22;6591;51.446;5.404;2023-09-19T00:23:59;16.10;99.90
13049;DHT22;6591;51.446;5.404;2023-09-19T00:26:26;17.10;99.90
13049;DHT22;6591;51.446;5.404;2023-09-19T00:28:57;16.10;99.90
13049;DHT22;6591;51.446;5.404;2023-09-19T00:31:35;17.00;99.90
13049;DHT22;6591;51.446;5.404;2023-09-19T00:34:04;16.40;99.90
13049;DHT22;6591;51.446;5.404;2023-09-19T00:36:32;17.30;99.90
13049;DHT22;6591;51.446;5.404;2023-09-19T00:39:00;17.40;99.90
13049;DHT22;6591;51.446;5.404;2023-09-19T00:41:27;15.90;99.90
13049;DHT22;6591;51.446;5.404;2023-09-19T00:43:57;17.20;99.90
13049;DHT22;6591;51.446;5.404;2023-09-19T00:46:24;16.00;99.90
13049;DHT22;6591;51.446;5.404;2023-09-19T00:48:52;15.90;99.90
13049;DHT22;6591;51.446;5.404;2023-09-19T00:51:20;15.90;99.90
13049;DHT22;6591;51.446;5.404;2023-09-19T00:53:49;17.70;99.90
13049;DHT22;6591;51.446;5.404;2023-09-19T00:56:16;17.30;99.90
13049;DHT22;6591;51.446;5.404;2023-09-19T00:58:46;15.90;99.90
13049;DHT22;6591;51.446;5.404;2023-09-19T01:01:15;17.20;99.90
13049;DHT22;6591;51.446;5.404;2023-09-19T01:03:44;15.80;99.90
13049;DHT22;6591;51.446;5.404;2023-09-19T01:06:13;15.80;99.90
13049;DHT22;6591;51.446;5.404;2023-09-19T01:08:40;16.80;99.90
13049;DHT22;6591;51.446;5.404;2023-09-19T01:11:20;15.10;99.90
13049;DHT22;6591;51.446;5.404;2023-09-19T01:17:00;15.80;99.90
13049;DHT22;6591;51.446;5.404;2023-09-19T01:20:07;15.80;99.90
13049;DHT22;6591;51.446;5.404;2023-09-19T01:28:49;15.70;99.90
13049;DHT22;6591;51.446;5.404;2023-09-19T01:31:25;15.60;99.90
13049;DHT22;6591;51.446;5.404;2023-09-19T01:34:02;15.70;99.90
13049;DHT22;6591;51.446;5.404;2023-09-19T01:36:35;15.60;99.90
13049;DHT22;6591;51.446;5.404;2023-09-19T01:39:08;15.60;99.90
13049;DHT22;6591;51.446;5.404;2023-09-19T01:41:56;15.60;99.90
13049;DHT22;6591;51.446;5.404;2023-09-19T01:47:43;15.60;99.90
13049;DHT22;6591;51.446;5.404;2023-09-19T01:50:32;15.60;99.90
13049;DHT22;6591;51.446;5.404;2023-09-19T01:53:25;15.60;99.90
13049;DHT22;6591;51.446;5.404;2023-09-19T01:55:58;15.60;99.90
13049;DHT22;6591;51.446;5.404;2023-09-19T01:58:48;15.50;99.90
13049;DHT22;6591;51.446;5.404;2023-09-19T02:01:26;15.70;99.90
13049;DHT22;6591;51.446;5.404;2023-09-19T02:03:55;15.60;99.90
13049;DHT22;6591;51.446;5.404;2023-09-19T02:06:23;16.30;99.90
13049;DHT22;6591;51.446;5.404;2023-09-19T02:08:54;15.50;99.90
13049;DHT22;6591;51.446;5.404;2023-09-19T02:11:22;15.50;99.90
13049;DHT22;6591;51.446;5.404;2023-09-19T02:13:50;15.50;99.90
13049;DHT22;6591;51.446;5.404;2023-09-19T02:16:21;17.60;99.90
13049;DHT22;6591;51.446;5.404;2023-09-19T02:18:49;15.50;99.90
13049;DHT22;6591;51.446;5.404;2023-09-19T02:21:18;15.50;99.90
13049;DHT22;6591;51.446;5.404;2023-09-19T02:23:45;15.50;99.90
13049;DHT22;6591;51.446;5.404;2023-09-19T02:26:14;15.50;99.90
13049;DHT22;6591;51.446;5.404;2023-09-19T02:28:41;16.10;99.90
13049;DHT22;6591;51.446;5.404;2023-09-19T02:31:09;15.60;99.90
13049;DHT22;6591;51.446;5.404;2023-09-19T02:33:36;17.50;99.90
13049;DHT22;6591;51.446;5.404;2023-09-19T02:36:04;15.30;99.90
13049;DHT22;6591;51.446;5.404;2023-09-19T02:38:32;15.30;99.90
13049;DHT22;6591;51.446;5.404;2023-09-19T02:41:00;15.30;99.90
13049;DHT22;6591;51.446;5.404;2023-09-19T02:43:28;17.10;99.90
13049;DHT22;6591;51.446;5.404;2023-09-19T02:45:55;15.20;99.90
13049;DHT22;6591;51.446;5.404;2023-09-19T02:48:24;15.20;99.90
13049;DHT22;6591;51.446;5.404;2023-09-19T02:50:52;15.20;99.90
13049;DHT22;6591;51.446;5.404;2023-09-19T02:53:19;15.80;99.90
13049;DHT22;6591;51.446;5.404;2023-09-19T02:55:47;15.10;99.90
13049;DHT22;6591;51.446;5.404;2023-09-19T02:58:15;15.10;99.90
13049;DHT22;6591;51.446;5.404;2023-09-19T03:00:42;15.10;99.90
13049;DHT22;6591;51.446;5.404;2023-09-19T03:03:21;16.90;99.90
13049;DHT22;6591;51.446;5.404;2023-09-19T03:05:49;13.80;99.90
13049;DHT22;6591;51.446;5.404;2023-09-19T03:08:21;15.90;99.90
13049;DHT22;6591;51.446;5.404;2023-09-19T03:10:48;13.60;99.90
13049;DHT22;6591;51.446;5.404;2023-09-19T03:13:16;15.00;99.90
13049;DHT22;6591;51.446;5.404;2023-09-19T03:15:43;15.00;99.90
13049;DHT22;6591;51.446;5.404;2023-09-19T03:18:16;15.00;99.90
13049;DHT22;6591;51.446;5.404;2023-09-19T03:20:43;16.20;99.90
13049;DHT22;6591;51.446;5.404;2023-09-19T03:23:11;15.00;99.90
13049;DHT22;6591;51.446;5.404;2023-09-19T03:25:40;15.00;99.90
13049;DHT22;6591;51.446;5.404;2023-09-19T03:28:08;15.00;99.90
13049;DHT22;6591;51.446;5.404;2023-09-19T03:30:36;16.30;99.90
13049;DHT22;6591;51.446;5.404;2023-09-19T03:33:04;14.90;99.90
13049;DHT22;6591;51.446;5.404;2023-09-19T03:35:33;17.10;99.90
13049;DHT22;6591;51.446;5.404;2023-09-19T03:38:02;15.80;99.90
13049;DHT22;6591;51.446;5.404;2023-09-19T03:40:30;15.00;99.90
13049;DHT22;6591;51.446;5.404;2023-09-19T03:43:01;16.70;99.90
13049;DHT22;6591;51.446;5.404;2023-09-19T03:45:29;16.80;99.90
13049;DHT22;6591;51.446;5.404;2023-09-19T03:47:56;14.90;99.90
13049;DHT22;6591;51.446;5.404;2023-09-19T03:50:25;15.00;99.90
13049;DHT22;6591;51.446;5.404;2023-09-19T03:52:57;15.00;99.90
13049;DHT22;6591;51.446;5.404;2023-09-19T03:55:25;16.60;99.90
13049;DHT22;6591;51.446;5.404;2023-09-19T03:57:52;15.00;99.90
13049;DHT22;6591;51.446;5.404;2023-09-19T04:00:19;15.00;99.90
13049;DHT22;6591;51.446;5.404;2023-09-19T04:02:49;15.00;99.90
13049;DHT22;6591;51.446;5.404;2023-09-19T04:05:19;15.10;99.90
13049;DHT22;6591;51.446;5.404;2023-09-19T04:07:46;16.20;99.90
13049;DHT22;6591;51.446;5.404;2023-09-19T04:10:13;15.00;99.90
13049;DHT22;6591;51.446;5.404;2023-09-19T04:12:53;15.00;99.90
13049;DHT22;6591;51.446;5.404;2023-09-19T04:15:22;14.30;99.90
13049;DHT22;6591;51.446;5.404;2023-09-19T04:17:53;15.10;99.90
13049;DHT22;6591;51.446;5.404;2023-09-19T04:20:20;15.90;99.90
13049;DHT22;6591;51.446;5.404;2023-09-19T04:22:51;14.60;99.90
13049;DHT22;6591;51.446;5.404;2023-09-19T04:25:19;15.10;99.90
13049;DHT22;6591;51.446;5.404;2023-09-19T04:27:47;15.10;99.90
13049;DHT22;6591;51.446;5.404;2023-09-19T04:30:14;15.60;99.90
13049;DHT22;6591;51.446;5.404;2023-09-19T04:32:43;15.10;99.90
13049;DHT22;6591;51.446;5.404;2023-09-19T04:35:10;15.40;99.90
13049;DHT22;6591;51.446;5.404;2023-09-19T04:37:38;15.20;99.90
13049;DHT22;6591;51.446;5.404;2023-09-19T04:40:08;16.20;99.90
13049;DHT22;6591;51.446;5.404;2023-09-19T04:42:41;15.20;99.90
13049;DHT22;6591;51.446;5.404;2023-09-19T04:45:09;16.00;99.90
13049;DHT22;6591;51.446;5.404;2023-09-19T04:47:37;15.40;99.90
13049;DHT22;6591;51.446;5.404;2023-09-19T04:50:07;15.40;99.90
13049;DHT22;6591;51.446;5.404;2023-09-19T04:52:40;15.50;99.90
13049;DHT22;6591;51.446;5.404;2023-09-19T04:55:16;16.70;99.90
13049;DHT22;6591;51.446;5.404;2023-09-19T04:57:51;15.60;99.90
13049;DHT22;6591;51.446;5.404;2023-09-19T05:00:21;15.60;99.90
13049;DHT22;6591;51.446;5.404;2023-09-19T05:02:55;15.70;99.90
13049;DHT22;6591;51.446;5.404;2023-09-19T05:05:25;15.70;99.90
13049;DHT22;6591;51.446;5.404;2023-09-19T05:07:53;15.80;99.90
13049;DHT22;6591;51.446;5.404;2023-09-19T05:10:21;15.30;99.90
13049;DHT22;6591;51.446;5.404;2023-09-19T05:12:48;15.80;99.90
13049;DHT22;6591;51.446;5.404;2023-09-19T05:15:19;15.80;99.90
13049;DHT22;6591;51.446;5.404;2023-09-19T05:17:50;15.80;99.90
13049;DHT22;6591;51.446;5.404;2023-09-19T05:20:24;15.80;99.90
13049;DHT22;6591;51.446;5.404;2023-09-19T05:23:04;15.80;99.90
13049;DHT22;6591;51.446;5.404;2023-09-19T05:25:36;15.80;99.90
13049;DHT22;6591;51.446;5.404;2023-09-19T05:28:10;15.70;99.90
13049;DHT22;6591;51.446;5.404;2023-09-19T05:30:42;17.10;99.90
13049;DHT22;6591;51.446;5.404;2023-09-19T05:33:15;17.40;99.90
13049;DHT22;6591;51.446;5.404;2023-09-19T05:35:42;15.70;99.90
13049;DHT22;6591;51.446;5.404;2023-09-19T05:38:10;16.50;99.90
13049;DHT22;6591;51.446;5.404;2023-09-19T05:40:40;16.30;99.90
13049;DHT22;6591;51.446;5.404;2023-09-19T05:43:13;16.90;99.90
13049;DHT22;6591;51.446;5.404;2023-09-19T05:45:46;15.70;99.90
13049;DHT22;6591;51.446;5.404;2023-09-19T05:48:14;15.70;99.90
13049;DHT22;6591;51.446;5.404;2023-09-19T05:50:43;15.70;99.90
13049;DHT22;6591;51.446;5.404;2023-09-19T05:53:14;17.70;99.90
13049;DHT22;6591;51.446;5.404;2023-09-19T05:55:42;15.60;99.90
13049;DHT22;6591;51.446;5.404;2023-09-19T05:58:09;15.60;99.90
13049;DHT22;6591;51.446;5.404;2023-09-19T06:00:37;15.80;99.90
13049;DHT22;6591;51.446;5.404;2023-09-19T06:03:06;15.80;99.90
13049;DHT22;6591;51.446;5.404;2023-09-19T06:05:37;15.70;99.90
13049;DHT22;6591;51.446;5.404;2023-09-19T06:08:07;15.70;99.90
13049;DHT22;6591;51.446;5.404;2023-09-19T06:10:35;15.70;99.90
13049;DHT22;6591;51.446;5.404;2023-09-19T06:13:03;15.80;99.90
13049;DHT22;6591;51.446;5.404;2023-09-19T06:15:37;15.80;99.90
13049;DHT22;6591;51.446;5.404;2023-09-19T06:18:04;15.20;99.90
13049;DHT22;6591;51.446;5.404;2023-09-19T06:20:32;15.80;99.90
13049;DHT22;6591;51.446;5.404;2023-09-19T06:23:00;15.90;99.90
13049;DHT22;6591;51.446;5.404;2023-09-19T06:25:30;16.60;99.90
13049;DHT22;6591;51.446;5.404;2023-09-19T06:27:57;15.90;99.90
13049;DHT22;6591;51.446;5.404;2023-09-19T06:30:24;16.00;99.90
13049;DHT22;6591;51.446;5.404;2023-09-19T06:32:57;15.90;99.90
13049;DHT22;6591;51.446;5.404;2023-09-19T06:35:27;15.50;99.90
13049;DHT22;6591;51.446;5.404;2023-09-19T06:37:56;16.00;99.90
13049;DHT22;6591;51.446;5.404;2023-09-19T06:40:25;16.10;99.90
13049;DHT22;6591;51.446;5.404;2023-09-19T06:42:53;16.40;99.90
13049;DHT22;6591;51.446;5.404;2023-09-19T06:45:24;16.20;99.90
13049;DHT22;6591;51.446;5.404;2023-09-19T06:47:55;16.20;99.90
13049;DHT22;6591;51.446;5.404;2023-09-19T06:50:25;16.30;99.90
13049;DHT22;6591;51.446;5.404;2023-09-19T06:52:55;16.30;99.90
13049;DHT22;6591;51.446;5.404;2023-09-19T06:55:26;16.40;99.90
13049;DHT22;6591;51.446;5.404;2023-09-19T06:57:59;15.30;99.90
13049;DHT22;6591;51.446;5.404;2023-09-19T07:00:29;16.60;99.90
13049;DHT22;6591;51.446;5.404;2023-09-19T07:05:28;16.70;99.90
13049;DHT22;6591;51.446;5.404;2023-09-19T07:07:59;16.70;99.90
13049;DHT22;6591;51.446;5.404;2023-09-19T07:10:28;16.80;99.90
13049;DHT22;6591;51.446;5.404;2023-09-19T07:13:02;16.90;99.90
13049;DHT22;6591;51.446;5.404;2023-09-19T07:15:33;16.90;99.90
13049;DHT22;6591;51.446;5.404;2023-09-19T07:18:03;17.00;99.90
13049;DHT22;6591;51.446;5.404;2023-09-19T07:20:30;17.10;99.90
13049;DHT22;6591;51.446;5.404;2023-09-19T07:22:59;17.10;99.90
13049;DHT22;6591;51.446;5.404;2023-09-19T07:25:30;17.20;99.90
13049;DHT22;6591;51.446;5.404;2023-09-19T07:27:58;17.30;99.90
13049;DHT22;6591;51.446;5.404;2023-09-19T07:30:28;18.70;99.90
13049;DHT22;6591;51.446;5.404;2023-09-19T07:32:56;19.80;99.90
13049;DHT22;6591;51.446;5.404;2023-09-19T07:35:24;17.50;99.90
13049;DHT22;6591;51.446;5.404;2023-09-19T07:37:52;17.60;99.90
13049;DHT22;6591;51.446;5.404;2023-09-19T07:40:20;17.60;99.90
13049;DHT22;6591;51.446;5.404;2023-09-19T07:42:48;17.70;99.90
13049;DHT22;6591;51.446;5.404;2023-09-19T07:45:16;17.80;99.90
13049;DHT22;6591;51.446;5.404;2023-09-19T07:47:47;17.80;99.90
13049;DHT22;6591;51.446;5.404;2023-09-19T07:50:19;17.90;99.90
13049;DHT22;6591;51.446;5.404;2023-09-19T07:52:48;18.10;99.90
13049;DHT22;6591;51.446;5.404;2023-09-19T07:55:18;18.20;99.90
13049;DHT22;6591;51.446;5.404;2023-09-19T07:57:47;18.20;99.90
13049;DHT22;6591;51.446;5.404;2023-09-19T08:00:15;18.30;99.90
13049;DHT22;6591;51.446;5.404;2023-09-19T08:02:43;17.20;99.90
13049;DHT22;6591;51.446;5.404;2023-09-19T08:05:13;18.50;99.90
13049;DHT22;6591;51.446;5.404;2023-09-19T08:07:45;18.60;99.90
13049;DHT22;6591;51.446;5.404;2023-09-19T08:10:15;18.60;99.90
13049;DHT22;6591;51.446;5.404;2023-09-19T08:12:47;18.70;99.90
13049;DHT22;6591;51.446;5.404;2023-09-19T08:15:20;18.80;99.90
13049;DHT22;6591;51.446;5.404;2023-09-19T08:17:48;18.80;99.90
13049;DHT22;6591;51.446;5.404;2023-09-19T08:20:16;18.90;99.90
13049;DHT22;6591;51.446;5.404;2023-09-19T08:22:52;19.00;99.90
13049;DHT22;6591;51.446;5.404;2023-09-19T08:25:24;19.10;99.90
13049;DHT22;6591;51.446;5.404;2023-09-19T08:27:56;19.20;99.90
13049;DHT22;6591;51.446;5.404;2023-09-19T08:30:25;19.30;99.90
13049;DHT22;6591;51.446;5.404;2023-09-19T08:32:58;19.40;99.90
13049;DHT22;6591;51.446;5.404;2023-09-19T08:35:46;19.40;99.90
13049;DHT22;6591;51.446;5.404;2023-09-19T08:38:13;19.50;99.90
13049;DHT22;6591;51.446;5.404;2023-09-19T08:40:41;19.70;99.90
13049;DHT22;6591;51.446;5.404;2023-09-19T08:43:09;19.90;99.90
13049;DHT22;6591;51.446;5.404;2023-09-19T08:45:37;19.80;99.90
13049;DHT22;6591;51.446;5.404;2023-09-19T08:48:27;19.80;99.90
13049;DHT22;6591;51.446;5.404;2023-09-19T08:51:00;19.90;99.90
13049;DHT22;6591;51.446;5.404;2023-09-19T08:56:33;20.00;99.90
13049;DHT22;6591;51.446;5.404;2023-09-19T08:59:03;19.90;99.90
13049;DHT22;6591;51.446;5.404;2023-09-19T09:01:51;20.00;99.90
13049;DHT22;6591;51.446;5.404;2023-09-19T09:04:22;20.10;99.90
13049;DHT22;6591;51.446;5.404;2023-09-19T09:06:53;20.00;99.90
13049;DHT22;6591;51.446;5.404;2023-09-19T09:09:21;20.00;99.90
13049;DHT22;6591;51.446;5.404;2023-09-19T09:11:49;20.10;99.90
13049;DHT22;6591;51.446;5.404;2023-09-19T09:14:21;20.20;99.90
13049;DHT22;6591;51.446;5.404;2023-09-19T09:16:48;20.30;99.90
13049;DHT22;6591;51.446;5.404;2023-09-19T09:19:16;20.40;99.90
13049;DHT22;6591;51.446;5.404;2023-09-19T09:21:51;20.50;99.90
13049;DHT22;6591;51.446;5.404;2023-09-19T09:24:29;20.10;99.90
13049;DHT22;6591;51.446;5.404;2023-09-19T09:26:57;20.70;99.90
13049;DHT22;6591;51.446;5.404;2023-09-19T09:29:42;20.90;99.90
13049;DHT22;6591;51.446;5.404;2023-09-19T09:34:51;21.20;99.90
13049;DHT22;6591;51.446;5.404;2023-09-19T09:37:28;22.60;99.90
13049;DHT22;6591;51.446;5.404;2023-09-19T09:40:01;21.40;99.90
13049;DHT22;6591;51.446;5.404;2023-09-19T09:42:41;21.50;99.90
13049;DHT22;6591;51.446;5.404;2023-09-19T09:45:20;21.50;99.90
13049;DHT22;6591;51.446;5.404;2023-09-19T09:48:01;21.60;99.90
13049;DHT22;6591;51.446;5.404;2023-09-19T09:50:51;21.70;99.90
13049;DHT22;6591;51.446;5.404;2023-09-19T09:53:27;21.80;99.90
13049;DHT22;6591;51.446;5.404;2023-09-19T09:56:04;21.90;99.90
13049;DHT22;6591;51.446;5.404;2023-09-19T09:58:35;21.60;99.90
13049;DHT22;6591;51.446;5.404;2023-09-19T10:01:04;22.10;99.90
13049;DHT22;6591;51.446;5.404;2023-09-19T10:03:43;22.20;99.90
13049;DHT22;6591;51.446;5.404;2023-09-19T10:06:15;22.20;99.90
13049;DHT22;6591;51.446;5.404;2023-09-19T10:09:05;22.40;99.90
13049;DHT22;6591;51.446;5.404;2023-09-19T10:12:02;22.20;99.80
13049;DHT22;6591;51.446;5.404;2023-09-19T10:14:35;22.40;99.80
13049;DHT22;6591;51.446;5.404;2023-09-19T10:17:05;22.40;99.90
13049;DHT22;6591;51.446;5.404;2023-09-19T10:19:41;21.60;99.50
13049;DHT22;6591;51.446;5.404;2023-09-19T10:22:16;22.40;99.30
13049;DHT22;6591;51.446;5.404;2023-09-19T10:24:49;22.40;99.20
13049;DHT22;6591;51.446;5.404;2023-09-19T10:27:25;22.40;99.30
13049;DHT22;6591;51.446;5.404;2023-09-19T10:29:54;22.40;99.20
13049;DHT22;6591;51.446;5.404;2023-09-19T10:32:28;22.40;99.10
13049;DHT22;6591;51.446;5.404;2023-09-19T10:35:05;22.50;98.70
13049;DHT22;6591;51.446;5.404;2023-09-19T10:37:34;23.40;99.20
13049;DHT22;6591;51.446;5.404;2023-09-19T10:40:06;22.50;99.20
13049;DHT22;6591;51.446;5.404;2023-09-19T10:42:38;22.70;98.90
13049;DHT22;6591;51.446;5.404;2023-09-19T10:45:09;22.80;98.50
13049;DHT22;6591;51.446;5.404;2023-09-19T10:47:40;22.90;98.60
13049;DHT22;6591;51.446;5.404;2023-09-19T10:50:08;22.90;98.60
13049;DHT22;6591;51.446;5.404;2023-09-19T10:52:40;23.00;98.50
13049;DHT22;6591;51.446;5.404;2023-09-19T10:55:16;23.20;98.20
13049;DHT22;6591;51.446;5.404;2023-09-19T10:57:47;23.20;98.10
13049;DHT22;6591;51.446;5.404;2023-09-19T11:00:15;23.40;97.80
13049;DHT22;6591;51.446;5.404;2023-09-19T11:05:39;23.70;97.30
13049;DHT22;6591;51.446;5.404;2023-09-19T11:08:08;23.80;97.80
13049;DHT22;6591;51.446;5.404;2023-09-19T11:10:48;24.00;97.80
13049;DHT22;6591;51.446;5.404;2023-09-19T11:13:28;24.00;96.30
13049;DHT22;6591;51.446;5.404;2023-09-19T11:16:05;24.20;96.50
13049;DHT22;6591;51.446;5.404;2023-09-19T11:27:09;24.40;94.60
13049;DHT22;6591;51.446;5.404;2023-09-19T11:29:40;24.40;94.70
13049;DHT22;6591;51.446;5.404;2023-09-19T11:32:08;25.30;95.00
13049;DHT22;6591;51.446;5.404;2023-09-19T11:40:08;24.40;94.00
13049;DHT22;6591;51.446;5.404;2023-09-19T11:42:48;24.40;94.20
13049;DHT22;6591;51.446;5.404;2023-09-19T11:48:15;24.50;93.00
13049;DHT22;6591;51.446;5.404;2023-09-19T11:50:45;24.50;94.00
13049;DHT22;6591;51.446;5.404;2023-09-19T11:53:14;24.60;94.20
13049;DHT22;6591;51.446;5.404;2023-09-19T11:55:43;24.60;93.90
13049;DHT22;6591;51.446;5.404;2023-09-19T11:58:14;24.80;94.00
13049;DHT22;6591;51.446;5.404;2023-09-19T12:00:45;25.00;94.00
13049;DHT22;6591;51.446;5.404;2023-09-19T12:03:12;24.90;93.60
13049;DHT22;6591;51.446;5.404;2023-09-19T12:05:45;25.00;93.10
13049;DHT22;6591;51.446;5.404;2023-09-19T12:08:15;25.00;93.30
13049;DHT22;6591;51.446;5.404;2023-09-19T12:10:50;25.00;93.10
13049;DHT22;6591;51.446;5.404;2023-09-19T12:13:21;25.00;92.80
13049;DHT22;6591;51.446;5.404;2023-09-19T12:15:48;25.00;92.80
13049;DHT22;6591;51.446;5.404;2023-09-19T12:18:29;25.00;93.00
13049;DHT22;6591;51.446;5.404;2023-09-19T12:20:57;25.00;92.60
13049;DHT22;6591;51.446;5.404;2023-09-19T12:23:25;25.10;92.70
13049;DHT22;6591;51.446;5.404;2023-09-19T12:25:54;25.10;92.50
13049;DHT22;6591;51.446;5.404;2023-09-19T12:28:27;25.10;92.60
13049;DHT22;6591;51.446;5.404;2023-09-19T12:31:07;25.20;92.70
13049;DHT22;6591;51.446;5.404;2023-09-19T12:33:35;25.20;92.40
13049;DHT22;6591;51.446;5.404;2023-09-19T12:36:24;25.20;92.40
13049;DHT22;6591;51.446;5.404;2023-09-19T12:38:57;25.10;91.60
13049;DHT22;6591;51.446;5.404;2023-09-19T12:41:26;25.00;92.30
13049;DHT22;6591;51.446;5.404;2023-09-19T12:43:54;24.80;92.50
13049;DHT22;6591;51.446;5.404;2023-09-19T12:46:22;24.80;92.30
13049;DHT22;6591;51.446;5.404;2023-09-19T12:49:18;24.60;92.40
13049;DHT22;6591;51.446;5.404;2023-09-19T12:51:49;24.50;92.30
13049;DHT22;6591;51.446;5.404;2023-09-19T12:54:22;24.40;92.70
13049;DHT22;6591;51.446;5.404;2023-09-19T12:56:51;24.20;92.90
13049;DHT22;6591;51.446;5.404;2023-09-19T12:59:29;24.20;93.40
13049;DHT22;6591;51.446;5.404;2023-09-19T13:02:04;24.20;93.10
13049;DHT22;6591;51.446;5.404;2023-09-19T13:04:40;24.40;93.50
13049;DHT22;6591;51.446;5.404;2023-09-19T13:07:40;24.50;93.40
13049;DHT22;6591;51.446;5.404;2023-09-19T13:10:11;24.50;93.00
13049;DHT22;6591;51.446;5.404;2023-09-19T13:12:44;24.10;93.00
13049;DHT22;6591;51.446;5.404;2023-09-19T13:15:15;23.50;92.60
13049;DHT22;6591;51.446;5.404;2023-09-19T13:17:48;24.80;93.00
13049;DHT22;6591;51.446;5.404;2023-09-19T13:20:23;24.90;93.00
13049;DHT22;6591;51.446;5.404;2023-09-19T13:22:57;24.90;92.70
13049;DHT22;6591;51.446;5.404;2023-09-19T13:25:33;24.90;92.80
13049;DHT22;6591;51.446;5.404;2023-09-19T13:28:01;24.90;92.30
13049;DHT22;6591;51.446;5.404;2023-09-19T13:30:32;24.90;92.30
13049;DHT22;6591;51.446;5.404;2023-09-19T13:33:08;24.90;92.20
13049;DHT22;6591;51.446;5.404;2023-09-19T13:35:41;24.80;92.00
13049;DHT22;6591;51.446;5.404;2023-09-19T13:38:08;23.10;91.50
13049;DHT22;6591;51.446;5.404;2023-09-19T13:40:39;24.50;92.00
13049;DHT22;6591;51.446;5.404;2023-09-19T13:43:09;24.40;92.20
13049;DHT22;6591;51.446;5.404;2023-09-19T13:45:37;24.30;92.20
13049;DHT22;6591;51.446;5.404;2023-09-19T13:48:05;24.50;92.40
13049;DHT22;6591;51.446;5.404;2023-09-19T13:50:32;24.20;92.30
13049;DHT22;6591;51.446;5.404;2023-09-19T13:53:02;24.10;92.30
13049;DHT22;6591;51.446;5.404;2023-09-19T13:55:30;24.00;92.40
13049;DHT22;6591;51.446;5.404;2023-09-19T13:57:57;23.90;92.50
13049;DHT22;6591;51.446;5.404;2023-09-19T14:00:25;23.80;92.70
13049;DHT22;6591;51.446;5.404;2023-09-19T14:02:52;23.80;92.80
13049;DHT22;6591;51.446;5.404;2023-09-19T14:05:20;23.80;93.30
13049;DHT22;6591;51.446;5.404;2023-09-19T14:07:48;23.70;93.10
13049;DHT22;6591;51.446;5.404;2023-09-19T14:10:15;23.80;93.10
13049;DHT22;6591;51.446;5.404;2023-09-19T14:12:45;23.80;93.10
13049;DHT22;6591;51.446;5.404;2023-09-19T14:15:12;23.80;93.10
13049;DHT22;6591;51.446;5.404;2023-09-19T14:17:40;23.80;93.10
13049;DHT22;6591;51.446;5.404;2023-09-19T14:20:09;23.80;93.10
13049;DHT22;6591;51.446;5.404;2023-09-19T14:22:37;23.80;93.30
13049;DHT22;6591;51.446;5.404;2023-09-19T14:25:05;23.90;93.30
13049;DHT22;6591;51.446;5.404;2023-09-19T14:27:33;23.80;93.40
13049;DHT22;6591;51.446;5.404;2023-09-19T14:30:00;24.00;93.40
13049;DHT22;6591;51.446;5.404;2023-09-19T14:32:27;24.00;93.40
13049;DHT22;6591;51.446;5.404;2023-09-19T14:34:55;24.10;93.40
13049;DHT22;6591;51.446;5.404;2023-09-19T14:37:22;24.20;93.40
13049;DHT22;6591;51.446;5.404;2023-09-19T14:39:49;24.30;93.50
13049;DHT22;6591;51.446;5.404;2023-09-19T14:42:18;24.40;93.30
13049;DHT22;6591;51.446;5.404;2023-09-19T14:44:45;24.50;93.40
13049;DHT22;6591;51.446;5.404;2023-09-19T14:47:14;24.70;93.40
13049;DHT22;6591;51.446;5.404;2023-09-19T14:49:46;24.80;93.40
13049;DHT22;6591;51.446;5.404;2023-09-19T14:52:13;24.90;92.80
13049;DHT22;6591;51.446;5.404;2023-09-19T14:54:43;25.00;92.80
13049;DHT22;6591;51.446;5.404;2023-09-19T14:57:10;25.10;92.50
13049;DHT22;6591;51.446;5.404;2023-09-19T14:59:38;25.70;92.70
13049;DHT22;6591;51.446;5.404;2023-09-19T15:02:07;25.10;92.00
13049;DHT22;6591;51.446;5.404;2023-09-19T15:04:34;25.00;92.10
13049;DHT22;6591;51.446;5.404;2023-09-19T15:07:02;25.00;92.00
13049;DHT22;6591;51.446;5.404;2023-09-19T15:09:30;24.90;92.00
13049;DHT22;6591;51.446;5.404;2023-09-19T15:12:00;24.80;92.00
13049;DHT22;6591;51.446;5.404;2023-09-19T15:14:27;24.60;92.10
13049;DHT22;6591;51.446;5.404;2023-09-19T15:16:56;24.70;92.30
13049;DHT22;6591;51.446;5.404;2023-09-19T15:19:23;24.70;92.20
13049;DHT22;6591;51.446;5.404;2023-09-19T15:21:51;24.60;92.30
13049;DHT22;6591;51.446;5.404;2023-09-19T15:24:18;24.60;92.10
13049;DHT22;6591;51.446;5.404;2023-09-19T15:26:46;24.60;92.40
13049;DHT22;6591;51.446;5.404;2023-09-19T15:29:14;24.50;92.30
13049;DHT22;6591;51.446;5.404;2023-09-19T15:31:43;24.60;92.20
13049;DHT22;6591;51.446;5.404;2023-09-19T15:34:10;24.50;92.10
13049;DHT22;6591;51.446;5.404;2023-09-19T15:36:41;24.50;92.20
13049;DHT22;6591;51.446;5.404;2023-09-19T15:39:08;24.40;92.10
13049;DHT22;6591;51.446;5.404;2023-09-19T15:41:40;24.30;92.00
13049;DHT22;6591;51.446;5.404;2023-09-19T15:44:13;24.20;92.10
13049;DHT22;6591;51.446;5.404;2023-09-19T15:46:43;24.10;92.00
13049;DHT22;6591;51.446;5.404;2023-09-19T15:49:11;24.00;92.20
13049;DHT22;6591;51.446;5.404;2023-09-19T15:51:40;23.30;92.00
13049;DHT22;6591;51.446;5.404;2023-09-19T15:54:11;22.90;92.10
13049;DHT22;6591;51.446;5.404;2023-09-19T15:56:43;23.50;92.40
13049;DHT22;6591;51.446;5.404;2023-09-19T15:59:11;23.40;92.50
13049;DHT22;6591;51.446;5.404;2023-09-19T16:01:44;23.30;92.60
13049;DHT22;6591;51.446;5.404;2023-09-19T16:04:12;23.20;92.80
13049;DHT22;6591;51.446;5.404;2023-09-19T16:06:40;23.10;92.80
13049;DHT22;6591;51.446;5.404;2023-09-19T16:09:11;23.00;92.90
13049;DHT22;6591;51.446;5.404;2023-09-19T16:11:39;22.70;93.00
13049;DHT22;6591;51.446;5.404;2023-09-19T16:14:11;22.80;93.00
13049;DHT22;6591;51.446;5.404;2023-09-19T16:16:43;22.70;93.10
13049;DHT22;6591;51.446;5.404;2023-09-19T16:19:10;22.60;93.30
13049;DHT22;6591;51.446;5.404;2023-09-19T16:21:38;22.70;93.40
13049;DHT22;6591;51.446;5.404;2023-09-19T16:24:08;22.50;93.50
13049;DHT22;6591;51.446;5.404;2023-09-19T16:26:37;24.50;94.10
13049;DHT22;6591;51.446;5.404;2023-09-19T16:29:05;23.40;93.90
13049;DHT22;6591;51.446;5.404;2023-09-19T16:31:33;22.40;93.70
13049;DHT22;6591;51.446;5.404;2023-09-19T16:34:02;22.30;93.70
13049;DHT22;6591;51.446;5.404;2023-09-19T16:36:30;22.30;93.80
13049;DHT22;6591;51.446;5.404;2023-09-19T16:38:58;22.20;93.80
13049;DHT22;6591;51.446;5.404;2023-09-19T16:41:27;22.20;93.90
13049;DHT22;6591;51.446;5.404;2023-09-19T16:43:54;22.10;94.00
13049;DHT22;6591;51.446;5.404;2023-09-19T16:46:21;22.10;94.10
13049;DHT22;6591;51.446;5.404;2023-09-19T16:48:48;22.00;94.20